Austin, Texas
Traffic Map
Current Weather Conditions
Austin, Texas
Clear
Clear
63°
Feels Like: 63°
Wind Chill: 63° Ceiling: Unl
Heat Index: 63° Visibility: 10mi
Dew Point: 62° Wind: 0mph
Humidity: 97% Direction: ° ()
Pressure: 29.62in Gusts: 0mph
Raw Report DataKATT 270951Z AUTO 00000KT 10SM CLR 17/17 A2962 RMK AO2 SLP021 T01720167
Traffic Incident Summary
Active as of:
Severity:
Category:
InformationThere was an issue retrieving the traffic information for this location. Please try a different location or try again shortly.
Advertisements
Track Severe Weather on mobile